Time;durP1;ratioP1;P1;durP2;ratioP2;P2;SDS_P1;SDS_P2;PMS_P1;PMS_P2;Temp;Humidity;BMP_temperature;BMP_pressure;BME280_temperature;BME280_humidity;BME280_pressure;Samples;Min_cycle;Max_cycle;Signal;HPM_P1;HPM_P2
2023/10/21 00:00:05;;;;;;;12.68;4.13;;;;;;;;;;6251381;22;20000;-88
2023/10/21 00:02:30;;;;;;;7.45;3.60;;;;;;;;;;6250388;22;20014;-90
2023/10/21 00:04:56;;;;;;;7.10;3.40;;;;;;;;;;6250384;22;20342;-89
2023/10/21 00:07:22;;;;;;;8.18;3.90;;;;;;;;;;6250554;22;20419;-89
2023/10/21 00:09:47;;;;;;;5.22;3.95;;;;;;;;;;6250146;22;20058;-89
2023/10/21 00:12:13;;;;;;;8.27;3.95;;;;;;;;;;6250303;22;19999;-89
2023/10/21 00:14:38;;;;;;;9.80;4.28;;;;;;;;;;6250460;22;20449;-88
2023/10/21 00:17:04;;;;;;;8.18;3.97;;;;;;;;;;6250507;22;20011;-88
2023/10/21 00:19:30;;;;;;;9.80;3.53;;;;;;;;;;6250065;22;20002;-89
2023/10/21 00:21:55;;;;;;;8.40;3.90;;;;;;;;;;6250541;22;20007;-89
2023/10/21 00:24:21;;;;;;;9.10;4.05;;;;;;;;;;6277419;22;20000;-89
2023/10/21 00:26:48;;;;;;;7.65;3.72;;;;;;;;;;6277252;22;20466;-89
2023/10/21 00:29:17;;;;;;;8.32;4.00;;;;;;;;;;6277136;22;20377;-90
2023/10/21 00:31:44;;;;;;;8.32;4.22;;;;;;;;;;6250283;22;20090;-90
2023/10/21 00:34:10;;;;;;;4.55;3.35;;;;;;;;;;6277568;22;20011;-89
2023/10/21 00:36:35;;;;;;;8.90;4.10;;;;;;;;;;6250295;22;20094;-89
2023/10/21 00:39:01;;;;;;;7.22;3.95;;;;;;;;;;6250195;22;20092;-88
2023/10/21 00:41:27;;;;;;;6.43;3.40;;;;;;;;;;6250159;22;20007;-89
2023/10/21 00:43:52;;;;;;;12.75;3.95;;;;;;;;;;6277158;22;20000;-88
2023/10/21 00:46:18;;;;;;;11.07;3.97;;;;;;;;;;6250401;22;20039;-89
2023/10/21 00:48:45;;;;;;;10.38;4.28;;;;;;;;;;6250187;22;20003;-89
2023/10/21 00:51:11;;;;;;;6.95;3.78;;;;;;;;;;6277364;22;20026;-90
2023/10/21 00:53:37;;;;;;;6.97;3.70;;;;;;;;;;6250153;22;20003;-90
2023/10/21 00:56:03;;;;;;;8.77;3.75;;;;;;;;;;6277256;22;20411;-89
2023/10/21 00:58:32;;;;;;;7.30;3.65;;;;;;;;;;6250142;22;20003;-90
2023/10/21 01:01:09;;;;;;;10.57;3.87;;;;;;;;;;6277465;22;20018;-90
2023/10/21 01:03:35;;;;;;;7.50;3.95;;;;;;;;;;6250380;22;20000;-90
2023/10/21 01:06:01;;;;;;;8.25;3.72;;;;;;;;;;6250128;22;19999;-90
2023/10/21 01:08:27;;;;;;;7.22;3.90;;;;;;;;;;6251844;22;20018;-89
2023/10/21 01:10:53;;;;;;;5.15;3.60;;;;;;;;;;6279046;22;20090;-89
2023/10/21 01:13:18;;;;;;;6.28;3.80;;;;;;;;;;6251976;22;20062;-89
2023/10/21 01:15:44;;;;;;;8.25;3.55;;;;;;;;;;6251931;22;20035;-90
2023/10/21 01:18:10;;;;;;;4.05;3.40;;;;;;;;;;6251658;22;20034;-89
2023/10/21 01:20:41;;;;;;;5.10;3.97;;;;;;;;;;6252017;22;20011;-89
2023/10/21 01:23:06;;;;;;;10.80;3.50;;;;;;;;;;6279071;22;20160;-89
2023/10/21 01:25:32;;;;;;;4.25;3.38;;;;;;;;;;6279109;22;20003;-89
2023/10/21 01:27:58;;;;;;;7.85;3.30;;;;;;;;;;6278939;22;20004;-89
2023/10/21 01:30:24;;;;;;;6.72;3.10;;;;;;;;;;6251795;22;20035;-89
2023/10/21 01:32:50;;;;;;;7.95;3.38;;;;;;;;;;6251847;22;20004;-89
2023/10/21 01:35:16;;;;;;;6.47;3.50;;;;;;;;;;6278961;22;20000;-89
2023/10/21 01:37:43;;;;;;;12.10;3.72;;;;;;;;;;6251672;22;20008;-89
2023/10/21 01:40:11;;;;;;;6.57;3.58;;;;;;;;;;6252809;22;20008;-89
2023/10/21 01:42:40;;;;;;;9.63;4.17;;;;;;;;;;6251767;22;20405;-89
2023/10/21 01:45:07;;;;;;;8.27;4.00;;;;;;;;;;6251622;22;20012;-89
2023/10/21 01:47:33;;;;;;;7.28;3.75;;;;;;;;;;6251542;22;20010;-89
2023/10/21 01:49:59;;;;;;;11.57;3.95;;;;;;;;;;6251048;22;20020;-90
2023/10/21 01:52:25;;;;;;;5.28;3.53;;;;;;;;;;6278898;22;20003;-90
2023/10/21 01:54:51;;;;;;;6.03;4.15;;;;;;;;;;6251940;22;20000;-89
2023/10/21 01:57:16;;;;;;;5.70;3.85;;;;;;;;;;6251589;22;20003;-89
2023/10/21 01:59:43;;;;;;;10.48;4.18;;;;;;;;;;6251187;22;20076;-90
2023/10/21 02:02:09;;;;;;;9.18;3.80;;;;;;;;;;6278784;22;20322;-90
2023/10/21 02:04:35;;;;;;;6.55;4.00;;;;;;;;;;6251477;22;20031;-89
2023/10/21 02:07:00;;;;;;;12.73;3.95;;;;;;;;;;6278794;22;20081;-89
2023/10/21 02:09:26;;;;;;;7.18;3.90;;;;;;;;;;6251268;22;20004;-90
2023/10/21 02:11:55;;;;;;;4.70;3.45;;;;;;;;;;6279104;22;20000;-89
2023/10/21 02:14:24;;;;;;;7.32;3.67;;;;;;;;;;6251612;22;20502;-89
2023/10/21 02:16:51;;;;;;;7.78;3.95;;;;;;;;;;6278541;22;19996;-89
2023/10/21 02:19:16;;;;;;;4.47;3.22;;;;;;;;;;6278123;22;20058;-88
2023/10/21 02:21:42;;;;;;;5.97;4.00;;;;;;;;;;6278620;22;19996;-89
2023/10/21 02:24:07;;;;;;;7.47;3.50;;;;;;;;;;6251413;22;20014;-89
2023/10/21 02:26:33;;;;;;;5.95;3.50;;;;;;;;;;6251016;22;20000;-89
2023/10/21 02:28:58;;;;;;;5.80;3.67;;;;;;;;;;6251215;22;20308;-89
2023/10/21 02:31:24;;;;;;;6.95;3.65;;;;;;;;;;6278693;22;20062;-89
2023/10/21 02:33:49;;;;;;;7.72;3.70;;;;;;;;;;6251366;22;20014;-89
2023/10/21 02:36:15;;;;;;;6.28;3.92;;;;;;;;;;6278353;22;20416;-88
2023/10/21 02:38:41;;;;;;;10.68;3.72;;;;;;;;;;6251146;22;20301;-89
2023/10/21 02:41:06;;;;;;;5.95;3.33;;;;;;;;;;6251144;22;20003;-89
2023/10/21 02:43:32;;;;;;;7.90;3.22;;;;;;;;;;6278345;22;19996;-89
2023/10/21 02:46:07;;;;;;;6.97;3.65;;;;;;;;;;6278227;22;19995;-89
2023/10/21 02:48:32;;;;;;;7.68;3.88;;;;;;;;;;6250979;22;20023;-89
2023/10/21 02:50:58;;;;;;;6.00;3.40;;;;;;;;;;6251194;22;20374;-90
2023/10/21 02:53:23;;;;;;;9.00;4.13;;;;;;;;;;6251193;22;20402;-89
2023/10/21 02:55:49;;;;;;;6.57;3.90;;;;;;;;;;6278548;22;20003;-89
2023/10/21 02:58:15;;;;;;;7.05;4.25;;;;;;;;;;6250935;22;20026;-90
2023/10/21 03:00:40;;;;;;;10.15;4.90;;;;;;;;;;6278115;22;20408;-90
2023/10/21 03:03:06;;;;;;;8.10;4.05;;;;;;;;;;6278074;22;20003;-90
2023/10/21 03:05:31;;;;;;;6.70;4.70;;;;;;;;;;6278163;22;20004;-89
2023/10/21 03:07:57;;;;;;;5.47;3.70;;;;;;;;;;6250817;22;20369;-89
2023/10/21 03:10:22;;;;;;;6.15;3.50;;;;;;;;;;6278079;22;19996;-89
2023/10/21 03:12:48;;;;;;;7.57;4.25;;;;;;;;;;6250966;22;20029;-90
2023/10/21 03:15:14;;;;;;;5.63;3.67;;;;;;;;;;6278064;22;20000;-89
2023/10/21 03:17:39;;;;;;;5.15;3.80;;;;;;;;;;6250645;22;20053;-89
2023/10/21 03:20:06;;;;;;;6.78;3.53;;;;;;;;;;6250857;22;20393;-89
2023/10/21 03:22:32;;;;;;;6.25;4.28;;;;;;;;;;6250673;22;20016;-89
2023/10/21 03:24:57;;;;;;;6.70;4.10;;;;;;;;;;6277806;22;20411;-89
2023/10/21 03:27:23;;;;;;;7.60;4.00;;;;;;;;;;6277696;22;20064;-89
2023/10/21 03:29:49;;;;;;;7.30;4.13;;;;;;;;;;6277480;22;20080;-89
2023/10/21 03:32:15;;;;;;;7.80;4.22;;;;;;;;;;6277712;22;20003;-89
2023/10/21 03:34:40;;;;;;;9.50;4.20;;;;;;;;;;6250583;22;20448;-89
2023/10/21 03:37:06;;;;;;;5.45;4.07;;;;;;;;;;6250907;22;20003;-89
2023/10/21 03:39:33;;;;;;;10.60;4.55;;;;;;;;;;6277533;22;20031;-89
2023/10/21 03:41:58;;;;;;;9.80;4.65;;;;;;;;;;6278099;22;20007;-89
2023/10/21 03:44:24;;;;;;;7.18;4.32;;;;;;;;;;6278008;22;20004;-89
2023/10/21 03:46:49;;;;;;;9.20;4.25;;;;;;;;;;6277663;22;20327;-89
2023/10/21 03:49:16;;;;;;;7.63;4.13;;;;;;;;;;6277222;22;20000;-90
2023/10/21 03:51:42;;;;;;;5.55;3.70;;;;;;;;;;6277764;22;20074;-88
2023/10/21 03:54:07;;;;;;;5.72;3.38;;;;;;;;;;6278343;22;20003;-89
2023/10/21 03:56:32;;;;;;;8.88;4.22;;;;;;;;;;6250920;22;20537;-90
2023/10/21 03:58:58;;;;;;;7.70;4.43;;;;;;;;;;6277534;22;20006;-89
2023/10/21 04:01:23;;;;;;;7.90;4.13;;;;;;;;;;6250657;22;20053;-89
2023/10/21 04:03:49;;;;;;;5.72;3.70;;;;;;;;;;6250567;22;20008;-89
2023/10/21 04:06:16;;;;;;;4.18;3.65;;;;;;;;;;6251194;22;20010;-90
2023/10/21 04:08:41;;;;;;;5.90;3.85;;;;;;;;;;6277373;22;20022;-89
2023/10/21 04:11:08;;;;;;;8.25;3.75;;;;;;;;;;6277402;22;20000;-89
2023/10/21 04:13:34;;;;;;;9.32;4.13;;;;;;;;;;6277473;22;20082;-89
2023/10/21 04:15:59;;;;;;;6.93;3.83;;;;;;;;;;6277424;22;20027;-89
2023/10/21 04:18:25;;;;;;;9.88;4.20;;;;;;;;;;6277338;22;20008;-89
2023/10/21 04:20:51;;;;;;;11.60;4.43;;;;;;;;;;6250234;22;20014;-89
2023/10/21 04:23:16;;;;;;;8.40;4.60;;;;;;;;;;6277152;22;20022;-87
2023/10/21 04:25:43;;;;;;;5.70;4.00;;;;;;;;;;6277297;22;20419;-88
2023/10/21 04:28:09;;;;;;;5.68;3.55;;;;;;;;;;6250077;22;20012;-89
2023/10/21 04:30:35;;;;;;;5.93;3.53;;;;;;;;;;6277374;22;20442;-89
2023/10/21 04:33:00;;;;;;;9.65;4.13;;;;;;;;;;6277166;22;20011;-89
2023/10/21 04:35:26;;;;;;;7.25;4.53;;;;;;;;;;6250308;22;20032;-89
2023/10/21 04:37:52;;;;;;;7.28;4.07;;;;;;;;;;6250794;22;20074;-89
2023/10/21 04:40:17;;;;;;;6.30;4.55;;;;;;;;;;6277409;22;20000;-89
2023/10/21 04:42:43;;;;;;;8.93;4.38;;;;;;;;;;6278378;22;20323;-89
2023/10/21 04:45:09;;;;;;;7.90;4.38;;;;;;;;;;6252249;22;20331;-89
2023/10/21 04:47:35;;;;;;;9.60;4.97;;;;;;;;;;6252039;22;20015;-90
2023/10/21 04:50:01;;;;;;;8.90;4.70;;;;;;;;;;6278912;22;20012;-89
2023/10/21 04:52:26;;;;;;;6.32;4.03;;;;;;;;;;6252342;22;20007;-89
2023/10/21 04:54:52;;;;;;;5.38;3.88;;;;;;;;;;6252439;22;20000;-89
2023/10/21 04:57:17;;;;;;;8.35;3.80;;;;;;;;;;6252180;22;20012;-89
2023/10/21 04:59:43;;;;;;;6.97;4.50;;;;;;;;;;6279257;22;20000;-89
2023/10/21 05:02:08;;;;;;;5.82;4.30;;;;;;;;;;6252230;22;20006;-89
2023/10/21 05:04:35;;;;;;;5.03;3.60;;;;;;;;;;6279543;22;20075;-89
2023/10/21 05:07:02;;;;;;;6.72;3.30;;;;;;;;;;6252268;22;20012;-90
2023/10/21 05:09:27;;;;;;;7.03;3.72;;;;;;;;;;6279033;22;20053;-89
2023/10/21 05:11:53;;;;;;;4.88;3.58;;;;;;;;;;6279234;22;20007;-90
2023/10/21 05:14:19;;;;;;;5.70;3.20;;;;;;;;;;6252574;22;20003;-88
2023/10/21 05:16:44;;;;;;;7.30;3.65;;;;;;;;;;6252044;22;20479;-90
2023/10/21 05:19:09;;;;;;;11.40;4.05;;;;;;;;;;6251730;22;20133;-89
2023/10/21 05:21:35;;;;;;;6.72;3.95;;;;;;;;;;6279395;22;20028;-89
2023/10/21 05:24:00;;;;;;;6.25;4.07;;;;;;;;;;6278834;22;20330;-89
2023/10/21 05:26:28;;;;;;;8.75;4.80;;;;;;;;;;6279048;22;20224;-89
2023/10/21 05:28:53;;;;;;;8.98;4.68;;;;;;;;;;6252057;22;20050;-89
2023/10/21 05:31:19;;;;;;;8.75;4.10;;;;;;;;;;6280288;22;19996;-89
2023/10/21 05:33:44;;;;;;;7.55;3.97;;;;;;;;;;6280209;22;20522;-89
2023/10/21 05:36:10;;;;;;;8.85;4.22;;;;;;;;;;6253270;22;20004;-90
2023/10/21 05:38:36;;;;;;;8.65;4.53;;;;;;;;;;6281015;22;20426;-89
2023/10/21 05:41:02;;;;;;;8.98;3.83;;;;;;;;;;6266304;22;20450;-87
2023/10/21 05:43:27;;;;;;;11.70;4.60;;;;;;;;;;6296347;22;20036;-87
2023/10/21 05:45:53;;;;;;;7.18;4.38;;;;;;;;;;6265879;22;20366;-89
2023/10/21 05:48:19;;;;;;;9.98;4.82;;;;;;;;;;6292579;22;20082;-89
2023/10/21 05:50:45;;;;;;;7.70;4.63;;;;;;;;;;6255645;22;20011;-88
2023/10/21 05:53:10;;;;;;;8.10;4.28;;;;;;;;;;6251921;22;20007;-88
2023/10/21 05:55:43;;;;;;;8.73;4.45;;;;;;;;;;6278567;22;20026;-88
2023/10/21 05:58:12;;;;;;;6.45;4.35;;;;;;;;;;6278970;22;20035;-88
2023/10/21 06:00:37;;;;;;;6.63;3.97;;;;;;;;;;6252222;22;20012;-88
2023/10/21 06:03:06;;;;;;;6.18;4.30;;;;;;;;;;6279162;22;20053;-89
2023/10/21 06:05:32;;;;;;;8.65;4.80;;;;;;;;;;6279406;22;19995;-89
2023/10/21 06:07:58;;;;;;;7.25;3.90;;;;;;;;;;6278872;22;20007;-88
2023/10/21 06:10:23;;;;;;;8.25;3.65;;;;;;;;;;6279154;22;20004;-89
2023/10/21 06:12:49;;;;;;;6.00;4.00;;;;;;;;;;6278978;22;20000;-88
2023/10/21 06:15:15;;;;;;;7.00;4.07;;;;;;;;;;6251998;22;20085;-89
2023/10/21 06:17:41;;;;;;;8.07;3.85;;;;;;;;;;6251504;22;20010;-88
2023/10/21 06:20:09;;;;;;;6.45;4.15;;;;;;;;;;6251615;22;20031;-87
2023/10/21 06:22:35;;;;;;;10.52;4.15;;;;;;;;;;6278505;22;20485;-90
2023/10/21 06:25:00;;;;;;;7.38;4.05;;;;;;;;;;6251525;22;19999;-89
2023/10/21 06:27:26;;;;;;;6.63;5.00;;;;;;;;;;6278310;22;20011;-86
2023/10/21 06:29:52;;;;;;;6.10;4.53;;;;;;;;;;6277924;22;20031;-89
2023/10/21 06:32:17;;;;;;;6.70;4.20;;;;;;;;;;6250897;22;20035;-86
2023/10/21 06:34:42;;;;;;;7.15;4.22;;;;;;;;;;6277824;22;19999;-86
2023/10/21 06:37:08;;;;;;;6.68;4.38;;;;;;;;;;6278086;22;20000;-85
2023/10/21 06:39:33;;;;;;;7.95;4.47;;;;;;;;;;6277486;22;20004;-84
2023/10/21 06:41:59;;;;;;;8.68;4.47;;;;;;;;;;6250619;22;20007;-86
2023/10/21 06:44:26;;;;;;;7.55;4.60;;;;;;;;;;6250782;22;20011;-86
2023/10/21 06:46:51;;;;;;;7.85;4.65;;;;;;;;;;6277952;22;20089;-85
2023/10/21 06:49:17;;;;;;;8.10;6.18;;;;;;;;;;6278377;22;20011;-86
2023/10/21 06:51:42;;;;;;;7.22;5.72;;;;;;;;;;6277829;22;20050;-85
2023/10/21 06:54:09;;;;;;;7.72;5.85;;;;;;;;;;6277880;22;20010;-87
2023/10/21 06:56:35;;;;;;;6.00;4.65;;;;;;;;;;6277763;22;20007;-87
2023/10/21 06:59:01;;;;;;;9.77;5.70;;;;;;;;;;6277733;22;20004;-86
2023/10/21 07:01:27;;;;;;;7.85;5.18;;;;;;;;;;6277791;22;20418;-83
2023/10/21 07:03:53;;;;;;;4.60;4.18;;;;;;;;;;6278469;22;19999;-84
2023/10/21 07:06:20;;;;;;;5.35;3.50;;;;;;;;;;6277713;22;20426;-86
2023/10/21 07:08:46;;;;;;;6.20;4.03;;;;;;;;;;6250870;22;20034;-87
2023/10/21 07:11:12;;;;;;;8.75;6.13;;;;;;;;;;6277679;22;19999;-88
2023/10/21 07:13:38;;;;;;;10.90;7.55;;;;;;;;;;6251178;22;20435;-88
2023/10/21 07:16:10;;;;;;;8.98;6.47;;;;;;;;;;6277601;22;20054;-87
2023/10/21 07:18:38;;;;;;;7.18;5.25;;;;;;;;;;6277629;22;20066;-87
2023/10/21 07:21:04;;;;;;;5.10;4.60;;;;;;;;;;6250689;22;20003;-87
2023/10/21 07:23:31;;;;;;;5.20;4.25;;;;;;;;;;6277404;22;20081;-85
2023/10/21 07:25:56;;;;;;;7.05;4.90;;;;;;;;;;6277313;22;20007;-86
2023/10/21 07:28:22;;;;;;;5.80;4.72;;;;;;;;;;6275905;22;20388;-86
2023/10/21 07:30:47;;;;;;;8.23;4.45;;;;;;;;;;6277263;22;20003;-86
2023/10/21 07:33:13;;;;;;;5.55;4.40;;;;;;;;;;6277484;22;20427;-86
2023/10/21 07:35:39;;;;;;;5.65;4.55;;;;;;;;;;6277326;22;20074;-86
2023/10/21 07:38:05;;;;;;;5.05;4.55;;;;;;;;;;6250567;22;20077;-86
2023/10/21 07:40:31;;;;;;;9.07;4.55;;;;;;;;;;6277314;22;20007;-86
2023/10/21 07:43:00;;;;;;;6.68;4.68;;;;;;;;;;6249983;22;20007;-86
2023/10/21 07:45:26;;;;;;;;;;;;;;;;;;6250271;22;20003;-86
2023/10/21 07:47:52;;;;;;;5.95;4.60;;;;;;;;;;6276897;22;19907;-86
2023/10/21 07:50:17;;;;;;;8.57;4.88;;;;;;;;;;6277400;22;20023;-86
2023/10/21 07:52:43;;;;;;;8.55;5.90;;;;;;;;;;6276706;22;20451;-88
2023/10/21 07:55:12;;;;;;;13.90;7.18;;;;;;;;;;6250094;22;20054;-86
2023/10/21 07:57:39;;;;;;;9.30;6.53;;;;;;;;;;6250161;22;20007;-86
2023/10/21 08:00:05;;;;;;;8.63;5.90;;;;;;;;;;6276995;22;20004;-86
2023/10/21 08:02:30;;;;;;;7.38;6.68;;;;;;;;;;6277238;22;20026;-86
2023/10/21 08:04:57;;;;;;;7.82;6.22;;;;;;;;;;6277617;22;20004;-86
2023/10/21 08:07:22;;;;;;;7.50;6.43;;;;;;;;;;6278026;22;20027;-87
2023/10/21 08:09:48;;;;;;;7.85;5.90;;;;;;;;;;6250021;22;20003;-86
2023/10/21 08:12:13;;;;;;;7.20;5.50;;;;;;;;;;6277243;22;20002;-86
2023/10/21 08:14:40;;;;;;;6.13;5.03;;;;;;;;;;6249703;22;20030;-86
2023/10/21 08:17:07;;;;;;;6.30;5.70;;;;;;;;;;6276974;22;19996;-84
2023/10/21 08:19:34;;;;;;;7.30;6.13;;;;;;;;;;6277062;22;20003;-89
2023/10/21 09:31:01;;;;;;;9.03;4.87;;;;;;;;;;6202488;22;20004;-90
2023/10/21 09:33:28;;;;;;;9.05;5.22;;;;;;;;;;6279759;22;20015;-89
2023/10/21 09:36:04;;;;;;;5.32;4.38;;;;;;;;;;6281131;22;20070;-89
2023/10/21 09:38:37;;;;;;;7.47;4.93;;;;;;;;;;6255347;22;20007;-92
2023/10/21 09:41:09;;;;;;;7.97;4.75;;;;;;;;;;6255959;22;20011;-96
2023/10/21 09:43:40;;;;;;;6.07;5.32;;;;;;;;;;6252876;22;20004;-93
2023/10/21 09:46:10;;;;;;;8.20;5.25;;;;;;;;;;6251660;22;20000;-89
2023/10/21 09:48:41;;;;;;;7.43;5.35;;;;;;;;;;6253112;22;20095;-89
2023/10/21 09:51:11;;;;;;;10.43;5.40;;;;;;;;;;6253804;22;20008;-87
2023/10/21 09:53:40;;;;;;;8.63;5.65;;;;;;;;;;6251310;22;20049;-86
2023/10/21 09:56:10;;;;;;;8.02;5.68;;;;;;;;;;6251503;22;20054;-86
2023/10/21 09:58:36;;;;;;;;;;;;;;;;;;6278864;22;20045;-86
2023/10/21 10:01:02;;;;;;;9.68;5.88;;;;;;;;;;6278389;22;19907;-87
2023/10/21 10:03:34;;;;;;;10.00;6.00;;;;;;;;;;6251232;22;20035;-85
2023/10/21 10:06:03;;;;;;;8.60;6.22;;;;;;;;;;6278019;22;20008;-85
2023/10/21 10:08:30;;;;;;;12.45;5.97;;;;;;;;;;6278477;22;20004;-86
2023/10/21 10:10:58;;;;;;;8.45;6.00;;;;;;;;;;6251583;22;20380;-88
2023/10/21 10:13:24;;;;;;;6.78;5.65;;;;;;;;;;6251444;22;20015;-86
2023/10/21 10:15:52;;;;;;;7.63;5.22;;;;;;;;;;6254120;22;20019;-95
2023/10/21 10:18:19;;;;;;;5.43;4.35;;;;;;;;;;6257899;22;20003;-94
2023/10/21 10:20:51;;;;;;;5.90;4.53;;;;;;;;;;6252817;22;20015;-94
2023/10/21 10:23:18;;;;;;;6.25;4.97;;;;;;;;;;6253719;22;20003;-95
2023/10/21 10:26:02;;;;;;;5.88;5.28;;;;;;;;;;6285179;22;20003;-94
2023/10/21 10:28:27;;;;;;;5.78;4.13;;;;;;;;;;6253842;22;20012;-95
2023/10/21 10:30:54;;;;;;;4.97;4.38;;;;;;;;;;6252702;22;20008;-94
2023/10/21 10:33:24;;;;;;;5.78;4.65;;;;;;;;;;6252045;22;20008;-96
2023/10/21 10:35:52;;;;;;;6.95;4.80;;;;;;;;;;6253661;22;20026;-96
2023/10/21 10:38:34;;;;;;;8.30;5.10;;;;;;;;;;6258088;22;20398;-95
2023/10/21 10:41:20;;;;;;;8.65;5.32;;;;;;;;;;6290439;22;20076;-93
2023/10/21 10:43:55;;;;;;;9.70;5.13;;;;;;;;;;6255816;22;20004;-96
2023/10/21 10:46:36;;;;;;;5.50;4.60;;;;;;;;;;6286084;22;20004;-93
2023/10/21 10:49:05;;;;;;;5.15;4.25;;;;;;;;;;6261777;22;20415;-96
2023/10/21 10:51:50;;;;;;;5.15;4.13;;;;;;;;;;6265673;22;20019;-94
2023/10/21 10:54:21;;;;;;;8.05;5.00;;;;;;;;;;6260479;22;20454;-93
2023/10/21 10:56:49;;;;;;;5.80;4.00;;;;;;;;;;6261416;22;20051;-96
2023/10/21 10:59:57;;;;;;;6.28;4.85;;;;;;;;;;6271356;22;19995;-95
2023/10/21 11:02:27;;;;;;;6.68;4.57;;;;;;;;;;6270698;22;20030;-95
2023/10/21 11:05:01;;;;;;;6.68;4.22;;;;;;;;;;6273789;22;20056;-94
2023/10/21 11:07:37;;;;;;;8.10;4.07;;;;;;;;;;6202787;23;20020;-96
2023/10/21 11:10:06;;;;;;;4.35;3.25;;;;;;;;;;6264947;23;20003;-95
2023/10/21 11:12:32;;;;;;;4.50;3.20;;;;;;;;;;6261116;23;20004;-92
2023/10/21 11:15:00;;;;;;;6.78;3.30;;;;;;;;;;6221846;23;20004;-87
2023/10/21 11:17:26;;;;;;;5.35;3.50;;;;;;;;;;6246264;23;20012;-92
2023/10/21 11:19:51;;;;;;;4.15;3.28;;;;;;;;;;6247959;23;20004;-93
2023/10/21 11:22:28;;;;;;;6.50;3.50;;;;;;;;;;6248587;23;20074;-94
2023/10/21 11:24:53;;;;;;;4.80;3.88;;;;;;;;;;6222034;23;20014;-94
2023/10/21 11:27:19;;;;;;;5.75;3.58;;;;;;;;;;6221611;23;20000;-93
2023/10/21 11:29:46;;;;;;;6.07;3.88;;;;;;;;;;6221178;23;20011;-93
2023/10/21 11:32:13;;;;;;;5.05;3.17;;;;;;;;;;6221085;23;19996;-93
2023/10/21 11:34:42;;;;;;;4.10;3.70;;;;;;;;;;6220931;23;20083;-94
2023/10/21 11:37:09;;;;;;;5.68;3.63;;;;;;;;;;6220955;23;20334;-92
2023/10/21 11:39:35;;;;;;;5.05;3.35;;;;;;;;;;6220990;23;20007;-92
2023/10/21 11:42:01;;;;;;;5.03;3.40;;;;;;;;;;6247742;23;20478;-92
2023/10/21 11:44:32;;;;;;;6.15;3.50;;;;;;;;;;6246461;23;20020;-89
2023/10/21 11:47:06;;;;;;;5.80;3.60;;;;;;;;;;6221131;23;20062;-90
2023/10/21 11:49:37;;;;;;;7.47;3.55;;;;;;;;;;6220656;23;20427;-92
2023/10/21 11:52:03;;;;;;;4.82;3.20;;;;;;;;;;6247212;23;20004;-92
2023/10/21 11:54:46;;;;;;;5.55;3.15;;;;;;;;;;6247130;23;20007;-92
2023/10/21 12:42:48;;;;;;;5.22;2.60;;;;;;;;;;6164600;23;20010;-92
2023/10/21 12:45:19;;;;;;;4.00;2.42;;;;;;;;;;6201122;23;20008;-91
2023/10/21 12:47:48;;;;;;;4.15;2.60;;;;;;;;;;6220199;23;20008;-90
2023/10/21 12:50:16;;;;;;;5.20;2.38;;;;;;;;;;6220679;23;20081;-89
2023/10/21 12:52:47;;;;;;;4.50;2.43;;;;;;;;;;6220468;23;19992;-92
2023/10/21 12:55:13;;;;;;;3.75;2.17;;;;;;;;;;6247078;23;20000;-91
2023/10/21 12:57:39;;;;;;;6.00;2.58;;;;;;;;;;6220314;23;20454;-92
2023/10/21 13:00:09;;;;;;;7.10;2.50;;;;;;;;;;6245854;23;20004;-91
2023/10/21 13:02:35;;;;;;;3.90;2.90;;;;;;;;;;6220592;23;20000;-92
2023/10/21 13:05:04;;;;;;;4.47;2.50;;;;;;;;;;6249255;23;20370;-90
2023/10/21 13:07:32;;;;;;;5.67;2.87;;;;;;;;;;6222791;23;20027;-91
2023/10/21 13:09:58;;;;;;;5.38;2.60;;;;;;;;;;6222976;23;20043;-90
2023/10/21 13:12:24;;;;;;;7.00;3.20;;;;;;;;;;6224068;23;20004;-90
2023/10/21 13:14:50;;;;;;;3.38;2.67;;;;;;;;;;6224366;23;20004;-91
2023/10/21 13:17:17;;;;;;;4.30;2.70;;;;;;;;;;6251428;23;20004;-90
2023/10/21 13:19:42;;;;;;;4.97;2.63;;;;;;;;;;6224300;23;20004;-94
2023/10/21 13:22:08;;;;;;;8.27;4.18;;;;;;;;;;6223086;23;20331;-93
2023/10/21 13:24:34;;;;;;;6.68;3.95;;;;;;;;;;6222562;23;20004;-88
2023/10/21 13:27:00;;;;;;;8.35;4.30;;;;;;;;;;6221390;23;20004;-88
2023/10/21 13:29:26;;;;;;;4.22;3.30;;;;;;;;;;6221566;23;20006;-87
2023/10/21 13:31:51;;;;;;;5.20;3.35;;;;;;;;;;6248489;23;20000;-87
2023/10/21 13:34:17;;;;;;;6.10;2.97;;;;;;;;;;6221208;23;20077;-88
2023/10/21 13:36:42;;;;;;;4.68;2.55;;;;;;;;;;6221531;23;20010;-88
2023/10/21 13:39:18;;;;;;;4.00;2.67;;;;;;;;;;6222688;23;20004;-88
2023/10/21 13:41:47;;;;;;;5.82;2.60;;;;;;;;;;6248380;23;20319;-88
2023/10/21 13:44:13;;;;;;;5.85;2.85;;;;;;;;;;6221475;23;20032;-88
2023/10/21 13:46:38;;;;;;;6.20;2.90;;;;;;;;;;6247914;23;19996;-89
2023/10/21 13:49:09;;;;;;;4.18;2.70;;;;;;;;;;6248336;23;20004;-92
2023/10/21 13:51:35;;;;;;;8.70;3.78;;;;;;;;;;6222453;23;20062;-91
2023/10/21 13:54:00;;;;;;;9.52;4.32;;;;;;;;;;6249326;23;20000;-90
2023/10/21 13:56:26;;;;;;;9.25;6.30;;;;;;;;;;6221520;23;20430;-89
2023/10/21 13:58:53;;;;;;;9.50;4.05;;;;;;;;;;6222041;23;20023;-90
2023/10/21 14:01:19;;;;;;;6.15;3.13;;;;;;;;;;6248287;23;20411;-89
2023/10/21 14:03:44;;;;;;;4.70;2.42;;;;;;;;;;6221462;23;20118;-89
2023/10/21 14:06:11;;;;;;;5.18;3.10;;;;;;;;;;6248128;23;20470;-88
2023/10/21 14:08:36;;;;;;;5.13;2.13;;;;;;;;;;6249168;23;20347;-90
2023/10/21 14:11:07;;;;;;;2.97;2.50;;;;;;;;;;6224929;23;20047;-92
2023/10/21 14:13:33;;;;;;;10.05;2.75;;;;;;;;;;6224876;23;20008;-90
2023/10/21 14:16:11;;;;;;;4.90;2.20;;;;;;;;;;6250406;23;20008;-93
2023/10/21 14:18:38;;;;;;;7.13;3.05;;;;;;;;;;6224660;23;20018;-91
2023/10/21 14:21:04;;;;;;;5.22;2.58;;;;;;;;;;6250488;23;20423;-91
2023/10/21 14:23:29;;;;;;;3.58;2.50;;;;;;;;;;6248721;23;20461;-91
2023/10/21 14:25:59;;;;;;;6.32;2.83;;;;;;;;;;6222914;23;20004;-93
2023/10/21 14:28:26;;;;;;;5.25;2.67;;;;;;;;;;6223676;23;20012;-91
2023/10/21 14:30:57;;;;;;;6.28;2.70;;;;;;;;;;6223440;23;20010;-93
2023/10/21 14:33:36;;;;;;;4.03;2.95;;;;;;;;;;6251299;23;20060;-94
2023/10/21 14:36:10;;;;;;;6.75;2.92;;;;;;;;;;6223530;23;20088;-95
2023/10/21 14:38:36;;;;;;;10.07;2.28;;;;;;;;;;6224555;23;20003;-94
2023/10/21 16:57:29;;;;;;;3.13;2.40;;;;;;;;;;6216362;23;20048;-92
2023/10/21 16:59:54;;;;;;;4.93;2.50;;;;;;;;;;6221011;23;20016;-87
2023/10/21 17:02:20;;;;;;;8.90;2.58;;;;;;;;;;6221657;23;20008;-93
2023/10/21 17:04:45;;;;;;;5.38;3.08;;;;;;;;;;6221987;23;20013;-92
2023/10/21 17:07:12;;;;;;;3.60;2.58;;;;;;;;;;6222785;23;20024;-88
2023/10/21 17:09:38;;;;;;;5.47;3.20;;;;;;;;;;6224183;23;20027;-90
2023/10/21 17:12:11;;;;;;;7.13;3.35;;;;;;;;;;6199299;23;20009;-91
2023/10/21 17:14:36;;;;;;;7.90;2.75;;;;;;;;;;6220771;23;20011;-92
2023/10/21 17:17:02;;;;;;;4.45;2.33;;;;;;;;;;6220967;23;20012;-93
2023/10/21 17:19:27;;;;;;;6.88;2.50;;;;;;;;;;6223642;23;20009;-92
2023/10/21 17:21:54;;;;;;;7.03;2.55;;;;;;;;;;6223488;23;20001;-93
2023/10/21 17:24:19;;;;;;;5.53;2.63;;;;;;;;;;6225224;23;20038;-91
2023/10/21 17:26:45;;;;;;;7.22;2.70;;;;;;;;;;6225242;23;20004;-95
2023/10/21 17:29:11;;;;;;;3.15;2.45;;;;;;;;;;6219656;23;20000;-93
2023/10/21 17:31:36;;;;;;;2.67;2.13;;;;;;;;;;6223019;23;20001;-94
2023/10/21 17:34:04;;;;;;;4.25;1.80;;;;;;;;;;6221052;23;20477;-94
2023/10/21 17:36:30;;;;;;;7.53;2.20;;;;;;;;;;6220684;23;20091;-94
2023/10/21 17:38:55;;;;;;;5.63;2.25;;;;;;;;;;6223009;23;20000;-94
2023/10/21 17:41:21;;;;;;;3.63;2.40;;;;;;;;;;6225035;23;20020;-93
2023/10/21 17:43:48;;;;;;;2.80;2.00;;;;;;;;;;6219946;23;20024;-92
2023/10/21 17:46:14;;;;;;;4.38;2.30;;;;;;;;;;6220524;23;20030;-92
2023/10/21 17:48:39;;;;;;;2.83;2.35;;;;;;;;;;6216751;23;20008;-92
2023/10/21 17:51:05;;;;;;;3.92;2.70;;;;;;;;;;6217519;23;20032;-92
2023/10/21 17:53:30;;;;;;;3.28;2.80;;;;;;;;;;6221314;23;20008;-91
2023/10/21 17:55:57;;;;;;;7.53;3.20;;;;;;;;;;6218010;23;20371;-93
2023/10/21 17:58:22;;;;;;;6.95;2.85;;;;;;;;;;6192411;23;20099;-93
2023/10/21 18:00:48;;;;;;;3.15;2.08;;;;;;;;;;6217433;23;20032;-92
2023/10/21 18:03:13;;;;;;;3.78;2.38;;;;;;;;;;6218713;23;20431;-94
2023/10/21 18:05:39;;;;;;;6.70;2.55;;;;;;;;;;6224362;23;20016;-92
2023/10/21 18:08:04;;;;;;;4.47;2.35;;;;;;;;;;6220374;23;20323;-91
2023/10/21 18:10:30;;;;;;;4.07;2.80;;;;;;;;;;6221041;23;20055;-91
2023/10/21 18:12:56;;;;;;;7.57;3.58;;;;;;;;;;6218825;23;20018;-91
2023/10/21 18:15:22;;;;;;;4.30;3.45;;;;;;;;;;6219390;23;20004;-92
2023/10/21 18:17:48;;;;;;;5.65;3.60;;;;;;;;;;6217145;23;20463;-91
2023/10/21 18:20:13;;;;;;;7.50;4.32;;;;;;;;;;6216921;23;20004;-93
2023/10/21 18:22:39;;;;;;;7.03;3.88;;;;;;;;;;6219547;23;20004;-94
2023/10/21 18:25:05;;;;;;;8.35;4.47;;;;;;;;;;6217949;23;20001;-94
2023/10/21 18:27:31;;;;;;;6.53;2.80;;;;;;;;;;6192572;23;20096;-91
2023/10/21 18:29:56;;;;;;;4.32;2.80;;;;;;;;;;6218760;23;20004;-92
2023/10/21 18:32:22;;;;;;;2.72;2.45;;;;;;;;;;6217686;23;20092;-91
2023/10/21 18:34:48;;;;;;;5.80;2.83;;;;;;;;;;6216527;23;20035;-94
2023/10/21 18:37:13;;;;;;;6.75;4.78;;;;;;;;;;6217425;23;20001;-94
2023/10/21 18:39:39;;;;;;;4.05;2.75;;;;;;;;;;6217324;23;20000;-94
2023/10/21 18:42:04;;;;;;;7.03;2.78;;;;;;;;;;6219367;23;20024;-93
2023/10/21 18:44:30;;;;;;;4.90;2.30;;;;;;;;;;6217266;23;20428;-95
2023/10/21 18:46:56;;;;;;;5.63;2.40;;;;;;;;;;6217649;23;20012;-92
2023/10/21 18:49:22;;;;;;;3.97;2.40;;;;;;;;;;6218759;23;20005;-93
2023/10/21 18:51:48;;;;;;;2.60;2.38;;;;;;;;;;6217686;23;20441;-92